Time;durP1;ratioP1;P1;durP2;ratioP2;P2;SDS_P1;SDS_P2;PMS_P1;PMS_P2;Temp;Humidity;BMP_temperature;BMP_pressure;BME280_temperature;BME280_humidity;BME280_pressure;Samples;Min_cycle;Max_cycle;Signal;HPM_P1;HPM_P2
2021/05/03 00:00:23;;;;;;;;;;;;;;;20.65;47.00;101145.88;2085878;28;3839;-71
2021/05/03 00:01:23;;;;;;;;;;;;;;;20.64;47.10;101141.34;2085799;28;4090;-71
2021/05/03 00:02:24;;;;;;;;;;;;;;;20.65;47.03;101143.03;2085516;28;3967;-71
2021/05/03 00:03:25;;;;;;;;;;;;;;;20.65;47.01;101143.03;2085582;28;5074;-71
2021/05/03 00:04:26;;;;;;;;;;;;;;;20.64;47.17;101150.69;2084434;28;4008;-71
2021/05/03 00:05:28;;;;;;;;;;;;;;;20.65;47.17;101137.34;2085575;28;3982;-72
2021/05/03 00:06:28;;;;;;;;;;;;;;;20.67;47.20;101143.50;2085976;28;4104;-71
2021/05/03 00:07:29;;;;;;;;;;;;;;;20.66;47.07;101139.00;2085802;28;3958;-71
2021/05/03 00:08:30;;;;;;;;;;;;;;;20.65;47.23;101138.16;2085219;28;3888;-71
2021/05/03 00:09:31;;;;;;;;;;;;;;;20.66;47.06;101145.50;2084714;28;3860;-71
2021/05/03 00:10:31;;;;;;;;;;;;;;;20.66;47.24;101142.66;2085242;28;4008;-71
2021/05/03 00:11:32;;;;;;;;;;;;;;;20.67;47.25;101140.66;2085793;28;3983;-71
2021/05/03 00:12:33;;;;;;;;;;;;;;;20.67;47.28;101149.19;2085706;28;3847;-71
2021/05/03 00:13:34;;;;;;;;;;;;;;;20.66;47.29;101139.81;2084768;28;4065;-71
2021/05/03 00:14:34;;;;;;;;;;;;;;;20.66;47.21;101142.66;2084687;28;3847;-71
2021/05/03 00:15:35;;;;;;;;;;;;;;;20.67;47.21;101143.50;2085866;28;4010;-71
2021/05/03 00:16:36;;;;;;;;;;;;;;;20.67;47.28;101152.03;2085329;28;3885;-72
2021/05/03 00:17:37;;;;;;;;;;;;;;;20.67;47.18;101152.03;2085078;28;5019;-71
2021/05/03 00:18:38;;;;;;;;;;;;;;;20.67;47.40;101158.53;2085572;28;3988;-72
2021/05/03 00:19:39;;;;;;;;;;;;;;;20.67;47.35;101154.88;2083851;28;4075;-71
2021/05/03 00:20:40;;;;;;;;;;;;;;;20.66;47.35;101156.88;2085908;28;3809;-71
2021/05/03 00:21:40;;;;;;;;;;;;;;;20.67;47.28;101154.88;2085503;28;4061;-71
2021/05/03 00:22:41;;;;;;;;;;;;;;;20.67;47.34;101152.03;2084490;28;3799;-71
2021/05/03 00:23:42;;;;;;;;;;;;;;;20.67;47.38;101158.53;2085287;28;4127;-72
2021/05/03 00:24:43;;;;;;;;;;;;;;;20.67;47.37;101146.34;2084933;28;4259;-71
2021/05/03 00:25:44;;;;;;;;;;;;;;;20.67;47.41;101161.38;2084751;28;3905;-71
2021/05/03 00:26:44;;;;;;;;;;;;;;;20.67;47.34;101155.69;2085641;28;3814;-71
2021/05/03 00:27:45;;;;;;;;;;;;;;;20.68;47.43;101165.09;2085463;28;3991;-72
2021/05/03 00:28:46;;;;;;;;;;;;;;;20.67;47.32;101158.53;2085682;28;3885;-71
2021/05/03 00:29:47;;;;;;;;;;;;;;;20.68;47.46;101162.25;2084096;28;3935;-71
2021/05/03 00:30:48;;;;;;;;;;;;;;;20.69;47.43;101166.75;2085767;28;6237;-71
2021/05/03 00:31:48;;;;;;;;;;;;;;;20.68;47.57;101165.91;2086185;28;3947;-72
2021/05/03 00:32:49;;;;;;;;;;;;;;;20.68;47.50;101162.25;2084765;28;3961;-71
2021/05/03 00:33:50;;;;;;;;;;;;;;;20.69;47.58;101161.88;2085037;28;3983;-72
2021/05/03 00:34:52;;;;;;;;;;;;;;;20.69;47.52;101167.56;2084512;28;3933;-71
2021/05/03 00:35:53;;;;;;;;;;;;;;;20.68;47.54;101171.59;2084033;28;3936;-71
2021/05/03 00:36:53;;;;;;;;;;;;;;;20.69;47.56;101164.72;2084758;28;3857;-72
2021/05/03 00:37:54;;;;;;;;;;;;;;;20.69;47.42;101166.75;2085953;28;4031;-72
2021/05/03 00:38:55;;;;;;;;;;;;;;;20.69;47.54;101170.41;2084682;28;5139;-72
2021/05/03 00:39:56;;;;;;;;;;;;;;;20.70;47.71;101165.56;2085736;28;3861;-73
2021/05/03 00:40:57;;;;;;;;;;;;;;;20.69;47.71;101172.44;2085274;28;3997;-72
2021/05/03 00:41:57;;;;;;;;;;;;;;;20.70;47.73;101179.78;2084813;28;4005;-72
2021/05/03 00:42:58;;;;;;;;;;;;;;;20.71;47.77;101174.94;2085263;28;5401;-73
2021/05/03 00:43:59;;;;;;;;;;;;;;;20.71;47.79;101174.94;2085699;28;4059;-73
2021/05/03 00:44:59;;;;;;;;;;;;;;;20.70;47.74;101179.78;2084261;28;3998;-72
2021/05/03 00:46:00;;;;;;;;;;;;;;;20.70;47.71;101179.78;2085435;28;3947;-72
2021/05/03 00:47:01;;;;;;;;;;;;;;;20.71;47.79;101181.47;2085461;28;3827;-72
2021/05/03 00:48:02;;;;;;;;;;;;;;;20.70;47.72;101179.78;2084316;28;4033;-72
2021/05/03 00:49:03;;;;;;;;;;;;;;;20.69;47.75;101176.09;2084453;28;4929;-72
2021/05/03 00:50:03;;;;;;;;;;;;;;;20.70;47.99;101179.78;2084888;28;4017;-72
2021/05/03 00:51:06;;;;;;;;;;;;;;;20.70;47.88;101191.16;2084248;28;4011;-72
2021/05/03 00:52:06;;;;;;;;;;;;;;;20.71;48.15;101178.63;2083303;28;4095;-72
2021/05/03 00:53:07;;;;;;;;;;;;;;;20.72;48.06;101182.28;2085891;28;4285;-72
2021/05/03 00:54:08;;;;;;;;;;;;;;;20.71;48.01;101181.47;2084927;28;3988;-72
2021/05/03 00:55:09;;;;;;;;;;;;;;;20.70;48.07;101182.63;2085597;28;3999;-72
2021/05/03 00:56:10;;;;;;;;;;;;;;;20.71;48.03;101180.63;2085373;28;4012;-72
2021/05/03 00:57:11;;;;;;;;;;;;;;;20.71;47.93;101187.16;2085373;28;4011;-72
2021/05/03 00:58:12;;;;;;;;;;;;;;;20.72;48.17;101188.78;2084460;28;4047;-72
2021/05/03 00:59:13;;;;;;;;;;;;;;;20.71;47.99;101181.47;2084610;28;4117;-71
2021/05/03 01:00:14;;;;;;;;;;;;;;;20.71;48.13;101181.47;2085024;28;4162;-72
2021/05/03 01:01:15;;;;;;;;;;;;;;;20.71;48.16;101181.47;2084559;28;4250;-72
2021/05/03 01:02:15;;;;;;;;;;;;;;;20.72;48.22;101179.44;2084957;28;4016;-72
2021/05/03 01:03:16;;;;;;;;;;;;;;;20.71;48.14;101187.16;2085318;28;3861;-72
2021/05/03 01:04:17;;;;;;;;;;;;;;;20.71;48.04;101195.66;2083515;28;3836;-71
2021/05/03 01:05:19;;;;;;;;;;;;;;;20.71;48.10;101184.31;2085282;28;4135;-71
2021/05/03 01:06:20;;;;;;;;;;;;;;;20.71;48.06;101192.81;2085193;28;3993;-72
2021/05/03 01:07:21;;;;;;;;;;;;;;;20.73;48.27;101189.63;2084981;28;3894;-72
2021/05/03 01:08:22;;;;;;;;;;;;;;;20.73;48.30;101192.47;2084472;28;4035;-72
2021/05/03 01:09:22;;;;;;;;;;;;;;;20.73;48.23;101192.47;2084128;28;4002;-72
2021/05/03 01:10:23;;;;;;;;;;;;;;;20.73;48.23;101186.78;2083808;28;4107;-71
2021/05/03 01:11:24;;;;;;;;;;;;;;;20.73;48.24;101192.47;2085424;28;4018;-72
2021/05/03 01:12:24;;;;;;;;;;;;;;;20.74;48.30;101194.16;2084654;28;3835;-72
2021/05/03 01:13:25;;;;;;;;;;;;;;;20.72;48.37;101187.97;2084944;28;4086;-72
2021/05/03 01:14:26;;;;;;;;;;;;;;;20.73;48.26;101190.50;2084365;28;3851;-72
2021/05/03 01:15:27;;;;;;;;;;;;;;;20.73;48.42;101189.63;2085252;28;3851;-72
2021/05/03 01:16:27;;;;;;;;;;;;;;;20.72;48.28;101200.16;2084824;28;3862;-71
2021/05/03 01:17:28;;;;;;;;;;;;;;;20.73;48.41;101193.31;2098060;23;3860;-30
2021/05/03 01:18:34;;;;;;;;;;;;;;;20.72;48.33;101197.31;2082546;28;4036;-30
2021/05/03 01:19:35;;;;;;;;;;;;;;;20.73;48.40;101196.16;2083923;28;4100;-31
2021/05/03 01:20:36;;;;;;;;;;;;;;;20.73;48.51;101195.31;2084333;28;4042;-33
2021/05/03 01:21:36;;;;;;;;;;;;;;;20.73;48.51;101195.31;2084948;28;4031;-32
2021/05/03 01:22:37;;;;;;;;;;;;;;;20.75;48.78;101201.50;2085074;28;3851;-32
2021/05/03 01:23:39;;;;;;;;;;;;;;;20.73;48.76;101199.00;2083874;28;4038;-31
2021/05/03 01:24:39;;;;;;;;;;;;;;;20.74;49.00;101200.66;2084283;28;4005;-31
2021/05/03 01:25:42;;;;;;;;;;;;;;;20.74;48.94;101206.34;2083946;28;4037;-30
2021/05/03 01:26:42;;;;;;;;;;;;;;;20.73;49.02;101204.69;2084598;28;3874;-32
2021/05/03 01:27:44;;;;;;;;;;;;;;;20.74;48.97;101197.81;2082778;28;4013;-28
2021/05/03 01:28:45;;;;;;;;;;;;;;;20.75;49.18;101205.16;2082106;28;3980;-29
2021/05/03 01:29:46;;;;;;;;;;;;;;;20.75;49.23;101202.31;2083008;28;3874;-31
2021/05/03 01:30:47;;;;;;;;;;;;;;;20.75;49.05;101204.34;2082065;28;3991;-29
2021/05/03 01:31:47;;;;;;;;;;;;;;;20.74;49.19;101203.50;2083608;28;4010;-30
2021/05/03 01:32:49;;;;;;;;;;;;;;;20.74;49.25;101206.34;2084426;28;3848;-30
2021/05/03 01:33:50;;;;;;;;;;;;;;;20.74;49.14;101200.66;2083885;28;3834;-30
2021/05/03 01:34:51;;;;;;;;;;;;;;;20.75;49.15;101207.19;2083097;28;3994;-31
2021/05/03 01:35:51;;;;;;;;;;;;;;;20.74;49.00;101206.34;2084126;28;4001;-31
2021/05/03 01:36:52;;;;;;;;;;;;;;;20.74;49.04;101200.66;2084920;28;3918;-29
2021/05/03 01:37:53;;;;;;;;;;;;;;;20.75;49.01;101201.50;2083115;28;4220;-36
2021/05/03 01:38:54;;;;;;;;;;;;;;;20.75;49.18;101205.16;2082927;28;4068;-38
2021/05/03 01:39:54;;;;;;;;;;;;;;;20.76;49.07;101206.00;2084284;28;3918;-31
2021/05/03 01:40:55;;;;;;;;;;;;;;;20.74;49.20;101203.50;2084982;28;4055;-32
2021/05/03 01:41:56;;;;;;;;;;;;;;;20.75;49.22;101213.69;2084379;28;4017;-32
2021/05/03 01:42:57;;;;;;;;;;;;;;;20.75;49.12;101210.03;2084355;28;4047;-31
2021/05/03 01:43:57;;;;;;;;;;;;;;;20.76;49.26;101211.69;2084383;28;4019;-31
2021/05/03 01:44:58;;;;;;;;;;;;;;;20.75;49.32;101208.00;2083479;28;4026;-33
2021/05/03 01:45:59;;;;;;;;;;;;;;;20.75;49.35;101213.69;2083572;28;4246;-37
2021/05/03 01:47:00;;;;;;;;;;;;;;;20.76;49.35;101217.38;2083085;28;4041;-41
2021/05/03 01:48:01;;;;;;;;;;;;;;;20.76;49.27;101206.00;2083379;28;4085;-31
2021/05/03 01:49:02;;;;;;;;;;;;;;;20.76;49.18;101211.69;2083805;28;3888;-34
2021/05/03 01:50:02;;;;;;;;;;;;;;;20.76;49.53;101212.53;2084692;28;4055;-34
2021/05/03 01:51:03;;;;;;;;;;;;;;;20.75;49.41;101210.84;2084258;28;4003;-34
2021/05/03 01:52:04;;;;;;;;;;;;;;;20.76;49.30;101212.53;2084316;28;4119;-30
2021/05/03 01:53:05;;;;;;;;;;;;;;;20.76;49.33;101206.84;2084682;28;4053;-29
2021/05/03 01:54:05;;;;;;;;;;;;;;;20.75;49.31;101202.31;2083999;28;4018;-33
2021/05/03 01:55:06;;;;;;;;;;;;;;;20.76;49.53;101212.53;2084021;28;3882;-30
2021/05/03 01:56:07;;;;;;;;;;;;;;;20.77;49.51;101213.38;2081860;28;5092;-32
2021/05/03 01:57:07;;;;;;;;;;;;;;;20.76;49.38;101215.38;2083959;28;4940;-32
2021/05/03 01:58:09;;;;;;;;;;;;;;;20.77;49.51;101214.19;2083469;28;4043;-29
2021/05/03 01:59:10;;;;;;;;;;;;;;;20.76;49.48;101221.06;2084452;28;3849;-32
2021/05/03 02:00:10;;;;;;;;;;;;;;;20.76;49.48;101223.91;2082746;28;4039;-32
2021/05/03 02:01:11;;;;;;;;;;;;;;;20.76;49.57;101223.91;2084728;28;4016;-33
2021/05/03 02:02:12;;;;;;;;;;;;;;;20.76;49.60;101218.22;2084456;28;4060;-32
2021/05/03 02:03:13;;;;;;;;;;;;;;;20.77;49.49;101219.06;2084315;28;4211;-31
2021/05/03 02:04:13;;;;;;;;;;;;;;;20.76;49.42;101218.22;2084908;28;4042;-32
2021/05/03 02:05:14;;;;;;;;;;;;;;;20.76;49.43;101226.75;2084447;28;3869;-29
2021/05/03 02:06:15;;;;;;;;;;;;;;;20.76;49.39;101214.53;2083541;28;4043;-29
2021/05/03 02:07:16;;;;;;;;;;;;;;;20.76;49.53;101215.38;2083592;28;4080;-29
2021/05/03 02:08:17;;;;;;;;;;;;;;;20.77;49.39;101221.91;2082062;28;3876;-30
2021/05/03 02:09:17;;;;;;;;;;;;;;;20.77;49.31;101228.41;2084714;28;3859;-31
2021/05/03 02:10:18;;;;;;;;;;;;;;;20.76;49.49;101223.91;2084070;28;3878;-31
2021/05/03 02:11:19;;;;;;;;;;;;;;;20.76;49.42;101229.59;2084607;28;4034;-31
2021/05/03 02:12:20;;;;;;;;;;;;;;;20.76;49.43;101226.75;2081603;28;4057;-32
2021/05/03 02:13:20;;;;;;;;;;;;;;;20.76;49.55;101229.59;2084724;28;3891;-30
2021/05/03 02:14:21;;;;;;;;;;;;;;;20.77;49.40;101236.94;2084930;28;4022;-31
2021/05/03 02:15:22;;;;;;;;;;;;;;;20.76;49.40;101226.75;2082619;28;4034;-31
2021/05/03 02:16:23;;;;;;;;;;;;;;;20.76;49.33;101223.91;2084528;28;3930;-30
2021/05/03 02:17:23;;;;;;;;;;;;;;;20.77;49.45;101224.75;2084960;28;4037;-30
2021/05/03 02:18:24;;;;;;;;;;;;;;;20.77;49.37;101228.41;2092448;28;3972;-31
2021/05/03 02:19:25;;;;;;;;;;;;;;;20.77;49.53;101231.25;2091611;28;4081;-30
2021/05/03 02:20:25;;;;;;;;;;;;;;;20.76;49.28;101235.28;2090744;28;4048;-29
2021/05/03 02:21:26;;;;;;;;;;;;;;;20.76;49.45;101238.13;2092328;28;4036;-30
2021/05/03 02:22:27;;;;;;;;;;;;;;;20.77;49.39;101239.78;2092182;28;4003;-30
2021/05/03 02:23:28;;;;;;;;;;;;;;;20.77;49.37;101239.78;2092486;28;4013;-35
2021/05/03 02:24:28;;;;;;;;;;;;;;;20.76;49.43;101243.81;2092457;28;3997;-34
2021/05/03 02:25:29;;;;;;;;;;;;;;;20.78;49.50;101234.94;2091697;28;3883;-32
2021/05/03 02:26:30;;;;;;;;;;;;;;;20.76;49.37;101237.28;2092341;28;4118;-29
2021/05/03 02:27:31;;;;;;;;;;;;;;;20.76;49.34;101240.97;2091594;28;4121;-30
2021/05/03 02:28:31;;;;;;;;;;;;;;;20.76;49.35;101246.66;2092612;28;3993;-28
2021/05/03 02:29:32;;;;;;;;;;;;;;;20.77;49.37;101247.50;2092784;28;4023;-29
2021/05/03 02:30:33;;;;;;;;;;;;;;;20.77;49.40;101239.78;2091649;28;4041;-30
2021/05/03 02:31:33;;;;;;;;;;;;;;;20.77;49.39;101248.31;2092144;28;3856;-32
2021/05/03 02:32:37;;;;;;;;;;;;;;;20.77;49.31;101242.63;2092400;28;3836;-32
2021/05/03 02:33:38;;;;;;;;;;;;;;;20.76;49.31;101245.81;2092553;28;4006;-29
2021/05/03 02:34:39;;;;;;;;;;;;;;;20.76;49.32;101240.97;2089023;28;4068;-33
2021/05/03 02:35:40;;;;;;;;;;;;;;;20.76;49.45;101243.81;2091509;28;3853;-32
2021/05/03 02:36:41;;;;;;;;;;;;;;;20.77;49.26;101247.50;2091881;28;3951;-32
2021/05/03 02:37:44;;;;;;;;;;;;;;;20.77;49.24;101241.81;2088559;28;3840;-28
2021/05/03 02:38:44;;;;;;;;;;;;;;;20.76;49.28;101243.81;2092798;28;3845;-29
2021/05/03 02:39:45;;;;;;;;;;;;;;;20.76;49.35;101243.81;2088571;28;3982;-29
2021/05/03 02:40:46;;;;;;;;;;;;;;;20.76;49.32;101246.66;2092376;28;3883;-31
2021/05/03 02:41:46;;;;;;;;;;;;;;;20.76;49.37;101243.81;2092974;28;3851;-32
2021/05/03 02:42:47;;;;;;;;;;;;;;;20.77;49.51;101244.66;2092671;28;3974;-32
2021/05/03 02:43:48;;;;;;;;;;;;;;;20.77;49.57;101248.31;2092732;28;3849;-30
2021/05/03 02:44:49;;;;;;;;;;;;;;;20.78;49.49;101254.84;2092895;28;3911;-29
2021/05/03 02:45:49;;;;;;;;;;;;;;;20.77;49.41;101248.31;2092114;28;3840;-33
2021/05/03 02:46:50;;;;;;;;;;;;;;;20.78;49.54;101249.16;2092359;28;3836;-31
2021/05/03 02:47:51;;;;;;;;;;;;;;;20.77;49.57;101248.31;2092217;28;4005;-30
2021/05/03 02:48:52;;;;;;;;;;;;;;;20.76;49.57;101246.66;2093395;28;3910;-31
2021/05/03 02:49:53;;;;;;;;;;;;;;;20.75;49.46;101244.16;2092533;28;5008;-36
2021/05/03 02:50:54;;;;;;;;;;;;;;;20.77;49.48;101254.00;2091616;28;4046;-29
2021/05/03 02:51:54;;;;;;;;;;;;;;;20.78;49.54;101249.16;2093013;28;4313;-32
2021/05/03 02:52:55;;;;;;;;;;;;;;;20.78;49.74;101254.84;2091226;28;4138;-34
2021/05/03 02:53:56;;;;;;;;;;;;;;;20.78;49.49;101252.81;2092689;28;4097;-29
2021/05/03 02:54:56;;;;;;;;;;;;;;;20.77;49.52;101259.69;2092596;28;4016;-30
2021/05/03 02:55:57;;;;;;;;;;;;;;;20.77;49.62;101254.00;2093610;28;3868;-34
2021/05/03 02:56:58;;;;;;;;;;;;;;;20.77;49.69;101256.84;2091432;28;4252;-32
2021/05/03 02:57:59;;;;;;;;;;;;;;;20.78;49.70;101266.22;2092449;28;3899;-29
2021/05/03 02:58:59;;;;;;;;;;;;;;;20.78;49.66;101249.16;2092877;28;4046;-30
2021/05/03 03:00:00;;;;;;;;;;;;;;;20.78;49.57;101260.53;2092969;28;4040;-31
2021/05/03 03:01:01;;;;;;;;;;;;;;;20.77;49.57;101259.69;2092641;28;3909;-33
2021/05/03 03:02:02;;;;;;;;;;;;;;;20.78;49.60;101254.84;2091819;28;4024;-30
2021/05/03 03:03:02;;;;;;;;;;;;;;;20.79;49.60;101250.84;2091713;28;3878;-30
2021/05/03 03:04:03;;;;;;;;;;;;;;;20.78;49.72;101255.66;2092929;28;4084;-30
2021/05/03 03:05:04;;;;;;;;;;;;;;;20.78;49.53;101258.50;2093064;28;4034;-30
2021/05/03 03:06:05;;;;;;;;;;;;;;;20.78;49.64;101249.97;2092449;28;3872;-29
2021/05/03 03:07:06;;;;;;;;;;;;;;;20.78;49.77;101254.84;2091927;28;4059;-29
2021/05/03 03:08:07;;;;;;;;;;;;;;;20.79;49.70;101259.38;2092490;28;4017;-29
2021/05/03 03:09:08;;;;;;;;;;;;;;;20.78;49.65;101255.66;2090282;28;4045;-32
2021/05/03 03:10:09;;;;;;;;;;;;;;;20.77;49.59;101259.69;2093238;28;4084;-29
2021/05/03 03:11:09;;;;;;;;;;;;;;;20.77;49.69;101265.38;2092666;28;4152;-30
2021/05/03 03:12:11;;;;;;;;;;;;;;;20.77;49.76;101259.69;2091967;28;4022;-31
2021/05/03 03:13:12;;;;;;;;;;;;;;;20.77;49.79;101262.53;2092486;28;3926;-29
2021/05/03 03:14:13;;;;;;;;;;;;;;;20.78;49.83;101269.06;2093365;28;4051;-30
2021/05/03 03:15:16;;;;;;;;;;;;;;;20.79;49.83;101262.22;2092908;28;4063;-31
2021/05/03 03:16:17;;;;;;;;;;;;;;;20.79;49.69;101263.03;2093173;28;4147;-29
2021/05/03 03:17:18;;;;;;;;;;;;;;;20.79;49.92;101259.38;2090823;28;4029;-29
2021/05/03 03:18:20;;;;;;;;;;;;;;;20.78;49.89;101263.38;2092211;28;3906;-29
2021/05/03 03:19:21;;;;;;;;;;;;;;;20.79;49.93;101268.72;2092543;28;4304;-30
2021/05/03 03:20:21;;;;;;;;;;;;;;;20.79;49.86;101263.03;2093015;28;3877;-30
2021/05/03 03:21:22;;;;;;;;;;;;;;;20.79;49.98;101265.88;2091674;28;4052;-28
2021/05/03 03:22:23;;;;;;;;;;;;;;;20.79;49.96;101265.88;2092720;28;4042;-30
2021/05/03 03:23:24;;;;;;;;;;;;;;;20.79;49.87;101274.41;2091472;28;4128;-30
2021/05/03 03:24:24;;;;;;;;;;;;;;;20.79;49.97;101274.41;2092242;28;4201;-30
2021/05/03 03:25:26;;;;;;;;;;;;;;;20.79;49.93;101268.72;2092414;28;4036;-31
2021/05/03 03:26:27;;;;;;;;;;;;;;;20.79;49.90;101270.75;2092536;28;3856;-32
2021/05/03 03:27:28;;;;;;;;;;;;;;;20.78;50.04;101272.72;2092809;28;4039;-30
2021/05/03 03:28:29;;;;;;;;;;;;;;;20.79;49.93;101274.41;2090854;28;4037;-30
2021/05/03 03:29:31;;;;;;;;;;;;;;;20.79;50.10;101284.97;2092710;28;4029;-28
2021/05/03 03:30:32;;;;;;;;;;;;;;;20.79;49.98;101280.09;2092498;28;4059;-30
2021/05/03 03:31:32;;;;;;;;;;;;;;;20.79;50.08;101274.41;2093014;28;4012;-30
2021/05/03 03:32:33;;;;;;;;;;;;;;;20.79;50.08;101277.25;2090536;28;3873;-29
2021/05/03 03:33:34;;;;;;;;;;;;;;;20.78;49.99;101278.41;2092312;28;4088;-29
2021/05/03 03:34:35;;;;;;;;;;;;;;;20.79;50.14;101277.25;2092485;28;3860;-30
2021/05/03 03:35:47;;;;;;;;;;;;;;;20.79;50.13;101280.09;2092837;28;3875;-29
2021/05/03 03:36:47;;;;;;;;;;;;;;;20.79;50.14;101280.09;2092533;28;3987;-31
2021/05/03 03:37:48;;;;;;;;;;;;;;;20.80;50.16;101289.47;2091910;28;3790;-30
2021/05/03 03:38:49;;;;;;;;;;;;;;;20.79;50.29;101282.94;2091977;28;3826;-29
2021/05/03 03:39:50;;;;;;;;;;;;;;;20.79;50.33;101284.97;2092884;28;3867;-29
2021/05/03 03:40:50;;;;;;;;;;;;;;;20.79;50.17;101282.13;2092259;28;4003;-29
2021/05/03 03:41:51;;;;;;;;;;;;;;;20.79;50.22;101287.81;2092952;28;4326;-29
2021/05/03 03:42:52;;;;;;;;;;;;;;;20.79;50.22;101297.16;2090655;28;3939;-30
2021/05/03 03:43:53;;;;;;;;;;;;;;;20.79;50.32;101288.63;2093194;28;4755;-29
2021/05/03 03:44:53;;;;;;;;;;;;;;;20.80;50.30;101289.47;2094063;28;3918;-29
2021/05/03 03:45:54;;;;;;;;;;;;;;;20.79;50.28;101297.16;2093665;28;4050;-30
2021/05/03 03:46:55;;;;;;;;;;;;;;;20.79;50.21;101290.66;2093203;28;3847;-31
2021/05/03 03:47:56;;;;;;;;;;;;;;;20.79;50.30;101288.63;2093339;28;3929;-30
2021/05/03 03:48:56;;;;;;;;;;;;;;;20.78;50.28;101281.25;2094213;28;4070;-29
2021/05/03 03:49:57;;;;;;;;;;;;;;;20.79;50.25;101290.66;2094291;28;4020;-31
2021/05/03 03:50:58;;;;;;;;;;;;;;;20.79;50.16;101294.31;2093851;28;4117;-31
2021/05/03 03:51:59;;;;;;;;;;;;;;;20.79;50.20;101291.47;2094665;28;4061;-29
2021/05/03 03:52:59;;;;;;;;;;;;;;;20.79;50.11;101300.00;2093351;28;3894;-32
2021/05/03 03:54:00;;;;;;;;;;;;;;;20.79;50.07;101296.34;2093614;28;3872;-30
2021/05/03 03:55:01;;;;;;;;;;;;;;;20.80;50.18;101303.69;2094016;28;4058;-31
2021/05/03 03:56:02;;;;;;;;;;;;;;;20.79;50.30;101302.03;2092866;28;4004;-32
2021/05/03 03:57:02;;;;;;;;;;;;;;;20.80;50.24;101295.16;2093153;28;3892;-28
2021/05/03 03:58:03;;;;;;;;;;;;;;;20.79;50.32;101300.00;2093753;28;4057;-30
2021/05/03 03:59:06;;;;;;;;;;;;;;;20.80;50.34;101295.16;2093660;28;3866;-29
2021/05/03 04:00:07;;;;;;;;;;;;;;;20.79;50.27;101302.84;2094339;28;4030;-29
2021/05/03 04:01:08;;;;;;;;;;;;;;;20.80;50.33;101298.81;2091677;28;4051;-31
2021/05/03 04:02:09;;;;;;;;;;;;;;;20.79;50.29;101308.53;2093169;28;3869;-34
2021/05/03 04:03:10;;;;;;;;;;;;;;;20.80;50.28;101307.34;2093426;28;3937;-30
2021/05/03 04:04:16;;;;;;;;;;;;;;;20.79;50.24;101314.22;2092210;28;4046;-37
2021/05/03 04:05:30;;;;;;;;;;;;;;;20.80;50.38;101304.50;2093913;28;4163;-30
2021/05/03 04:07:36;;;;;;;;;;;;;;;20.79;50.15;101311.38;2093012;28;3914;-32
2021/05/03 04:08:53;;;;;;;;;;;;;;;20.80;50.32;101315.06;2093495;28;3879;-30
2021/05/03 04:14:02;;;;;;;;;;;;;;;20.80;50.51;101320.75;2092753;28;3846;-32
2021/05/03 04:21:33;;;;;;;;;;;;;;;20.79;50.46;101325.59;2093676;28;4311;-30
2021/05/03 04:23:03;;;;;;;;;;;;;;;20.79;50.56;101324.78;2093436;28;3864;-30
2021/05/03 04:25:39;;;;;;;;;;;;;;;20.77;50.48;101319.41;2067103;28;4094;-32
2021/05/03 04:26:40;;;;;;;;;;;;;;;20.79;50.36;101333.31;2086428;28;3899;-31
2021/05/03 04:27:40;;;;;;;;;;;;;;;20.79;50.49;101327.63;2092941;28;3970;-31
2021/05/03 04:28:41;;;;;;;;;;;;;;;20.79;50.39;101324.78;2093459;28;4057;-30
2021/05/03 04:29:42;;;;;;;;;;;;;;;20.79;50.72;101330.47;2093173;28;5056;-30
2021/05/03 04:30:42;;;;;;;;;;;;;;;20.79;50.36;101325.59;2090947;28;4007;-32
2021/05/03 04:31:43;;;;;;;;;;;;;;;20.79;50.30;101328.44;2094132;28;3878;-31
2021/05/03 04:32:44;;;;;;;;;;;;;;;20.79;50.39;101330.47;2092851;28;3853;-29
2021/05/03 04:33:45;;;;;;;;;;;;;;;20.79;50.31;101331.28;2093580;28;4037;-32
2021/05/03 04:34:46;;;;;;;;;;;;;;;20.79;50.28;101331.28;2090477;28;3980;-32
2021/05/03 04:35:47;;;;;;;;;;;;;;;20.79;50.32;101331.28;2093816;28;4014;-36
2021/05/03 04:36:48;;;;;;;;;;;;;;;20.79;50.29;101327.63;2093662;28;3832;-30
2021/05/03 04:37:48;;;;;;;;;;;;;;;20.79;50.37;101333.31;2092637;28;3816;-28
2021/05/03 04:38:49;;;;;;;;;;;;;;;20.80;50.43;101340.66;2093173;28;3861;-35
2021/05/03 04:39:50;;;;;;;;;;;;;;;20.80;50.45;101338.63;2092642;28;3832;-30
2021/05/03 04:40:51;;;;;;;;;;;;;;;20.79;50.43;101339.81;2092868;28;3826;-29
2021/05/03 04:41:51;;;;;;;;;;;;;;;20.80;50.32;101338.63;2093786;28;4074;-31
2021/05/03 04:42:52;;;;;;;;;;;;;;;20.79;50.36;101339.81;2093507;28;3906;-30
2021/05/03 04:43:53;;;;;;;;;;;;;;;20.80;50.42;101337.81;2092647;28;6508;-30
2021/05/03 04:44:54;;;;;;;;;;;;;;;20.80;50.32;101337.81;2093733;28;4967;-29
2021/05/03 04:45:55;;;;;;;;;;;;;;;20.80;50.33;101341.47;2092995;28;3890;-29
2021/05/03 04:46:55;;;;;;;;;;;;;;;20.80;50.36;101346.34;2093777;28;4005;-32
2021/05/03 04:47:56;;;;;;;;;;;;;;;20.79;50.32;101339.00;2093942;28;4070;-30
2021/05/03 04:48:57;;;;;;;;;;;;;;;20.79;50.30;101342.66;2092866;28;4060;-29
2021/05/03 04:49:58;;;;;;;;;;;;;;;20.80;50.19;101341.47;2093474;28;3928;-32
2021/05/03 04:50:59;;;;;;;;;;;;;;;20.78;50.39;101340.97;2093392;28;4044;-34
2021/05/03 04:52:00;;;;;;;;;;;;;;;20.79;50.32;101341.84;2094037;28;4180;-30
2021/05/03 04:53:01;;;;;;;;;;;;;;;20.79;50.28;101347.53;2094042;28;3990;-30
2021/05/03 04:54:01;;;;;;;;;;;;;;;20.79;50.33;101344.69;2092507;28;4040;-29
2021/05/03 04:55:02;;;;;;;;;;;;;;;20.79;50.34;101351.19;2092632;28;4029;-31
2021/05/03 04:56:03;;;;;;;;;;;;;;;20.78;50.36;101346.66;2093316;28;4013;-29
2021/05/03 04:57:03;;;;;;;;;;;;;;;20.79;50.40;101347.53;2093611;28;4000;-32
2021/05/03 04:58:04;;;;;;;;;;;;;;;20.79;50.35;101350.38;2093151;28;4023;-30
2021/05/03 04:59:05;;;;;;;;;;;;;;;20.79;50.30;101351.19;2092877;28;4018;-29
2021/05/03 05:00:06;;;;;;;;;;;;;;;20.80;50.25;101349.19;2092794;28;3902;-29
2021/05/03 05:01:06;;;;;;;;;;;;;;;20.79;50.28;101359.72;2091930;28;4062;-31
2021/05/03 05:02:07;;;;;;;;;;;;;;;20.79;50.17;101354.03;2091867;28;4053;-31
2021/05/03 05:03:08;;;;;;;;;;;;;;;20.79;50.34;101354.03;2092857;28;4023;-30
2021/05/03 05:04:09;;;;;;;;;;;;;;;20.79;50.23;101351.19;2088230;28;3845;-30
2021/05/03 05:05:11;;;;;;;;;;;;;;;20.79;50.29;101359.72;2093894;28;4026;-29
2021/05/03 05:06:12;;;;;;;;;;;;;;;20.79;50.10;101362.56;2089788;28;3883;-28
2021/05/03 05:07:12;;;;;;;;;;;;;;;20.80;50.20;101358.53;2092490;28;3924;-32
2021/05/03 05:08:14;;;;;;;;;;;;;;;20.79;50.13;101359.72;2091979;28;4025;-30
2021/05/03 05:09:15;;;;;;;;;;;;;;;20.79;50.19;101362.56;2091102;28;3868;-31
2021/05/03 05:10:15;;;;;;;;;;;;;;;20.78;50.09;101346.66;2093232;28;4024;-28
2021/05/03 05:11:16;;;;;;;;;;;;;;;20.79;50.20;101364.59;2088840;28;4037;-32
2021/05/03 05:12:17;;;;;;;;;;;;;;;20.78;50.13;101363.72;2089675;28;3887;-31
2021/05/03 05:13:18;;;;;;;;;;;;;;;20.77;50.20;101367.75;2092843;28;3972;-30
2021/05/03 05:14:18;;;;;;;;;;;;;;;20.78;50.16;101366.56;2090809;28;4041;-38
2021/05/03 05:15:19;;;;;;;;;;;;;;;20.79;50.27;101370.28;2091587;28;3873;-37
2021/05/03 05:16:20;;;;;;;;;;;;;;;20.78;50.11;101363.72;2092347;28;3849;-36
2021/05/03 05:17:20;;;;;;;;;;;;;;;20.78;50.13;101366.56;2092685;28;4034;-42
2021/05/03 05:18:21;;;;;;;;;;;;;;;20.79;50.14;101376.78;2093340;28;3998;-34
2021/05/03 05:19:22;;;;;;;;;;;;;;;20.78;50.13;101368.59;2092638;28;4032;-39
2021/05/03 05:20:23;;;;;;;;;;;;;;;20.79;50.08;101370.28;2090582;28;3865;-39
2021/05/03 05:21:24;;;;;;;;;;;;;;;20.78;50.14;101380.78;2091005;28;4035;-33
2021/05/03 05:22:24;;;;;;;;;;;;;;;20.78;50.16;101372.25;2091482;28;4312;-35
2021/05/03 05:23:25;;;;;;;;;;;;;;;20.77;50.15;101370.59;2092480;28;4863;-33
2021/05/03 05:24:26;;;;;;;;;;;;;;;20.79;50.14;101375.97;2091260;28;4038;-34
2021/05/03 05:25:26;;;;;;;;;;;;;;;20.79;50.11;101376.78;2092539;28;4037;-33
2021/05/03 05:26:27;;;;;;;;;;;;;;;20.79;50.10;101375.97;2093190;28;4086;-34
2021/05/03 05:27:28;;;;;;;;;;;;;;;20.77;49.93;101370.59;2091681;28;4035;-35
2021/05/03 05:28:29;;;;;;;;;;;;;;;20.78;50.08;101375.09;2092663;28;3873;-33
2021/05/03 05:29:29;;;;;;;;;;;;;;;20.78;50.12;101380.78;2092774;28;4038;-34
2021/05/03 05:30:30;;;;;;;;;;;;;;;20.78;49.98;101380.78;2092448;28;3860;-34
2021/05/03 05:31:31;;;;;;;;;;;;;;;20.78;49.95;101377.13;2090569;28;3875;-36